createdAt,value
2022-10-04T00:02:28.744Z,9.30
2022-10-04T00:05:03.143Z,9.40
2022-10-04T00:07:32.082Z,9.40
2022-10-04T00:10:01.188Z,9.30
2022-10-04T00:12:32.119Z,9.30
2022-10-04T00:15:03.314Z,9.30
2022-10-04T00:17:40.124Z,9.20
2022-10-04T00:20:26.694Z,9.20
2022-10-04T00:23:12.072Z,9.20
2022-10-04T00:25:38.599Z,9.20
2022-10-04T00:28:14.930Z,9.20
2022-10-04T00:30:41.528Z,9.20
2022-10-04T00:33:12.815Z,9.20
2022-10-04T00:35:39.304Z,9.20
2022-10-04T00:38:13.667Z,9.20
2022-10-04T00:40:46.402Z,9.20
2022-10-04T00:43:45.449Z,9.20
2022-10-04T00:46:18.687Z,9.20
2022-10-04T00:48:50.594Z,9.20
2022-10-04T00:51:23.191Z,9.10
2022-10-04T00:53:57.151Z,9.10
2022-10-04T00:56:32.637Z,9.10
2022-10-04T00:58:59.131Z,9.10
2022-10-04T01:01:27.167Z,9.00
2022-10-04T01:03:54.826Z,9.00
2022-10-04T01:06:21.494Z,9.00
2022-10-04T01:08:51.493Z,9.10
2022-10-04T01:11:20.809Z,9.00
2022-10-04T01:13:50.778Z,9.10
2022-10-04T01:16:19.517Z,9.00
2022-10-04T01:18:47.358Z,9.00
2022-10-04T01:21:16.721Z,8.90
2022-10-04T01:23:45.594Z,8.90
2022-10-04T01:26:30.334Z,8.90
2022-10-04T01:28:58.830Z,8.90
2022-10-04T01:31:27.960Z,8.90
2022-10-04T01:33:57.201Z,8.90
2022-10-04T01:36:23.799Z,8.90
2022-10-04T01:38:51.179Z,8.90
2022-10-04T01:41:25.189Z,8.90
2022-10-04T01:43:56.790Z,8.90
2022-10-04T01:46:28.114Z,8.90
2022-10-04T01:48:56.263Z,8.80
2022-10-04T01:51:25.540Z,8.80
2022-10-04T01:54:13.504Z,8.80
2022-10-04T01:56:43.748Z,8.80
2022-10-04T01:59:15.695Z,8.80
2022-10-04T02:01:48.299Z,8.80
2022-10-04T02:04:21.877Z,8.80
2022-10-04T02:06:50.995Z,8.80
2022-10-04T02:09:21.682Z,8.90
2022-10-04T02:11:53.034Z,8.80
2022-10-04T02:14:22.025Z,8.80
2022-10-04T02:16:52.137Z,8.80
2022-10-04T02:19:22.086Z,8.80
2022-10-04T02:21:51.010Z,8.80
2022-10-04T02:24:22.551Z,8.70
2022-10-04T02:26:50.090Z,8.80
2022-10-04T02:29:17.026Z,8.70
2022-10-04T02:32:02.346Z,8.70
2022-10-04T02:34:29.276Z,8.70
2022-10-04T02:37:01.752Z,8.70
2022-10-04T02:39:38.867Z,8.70
2022-10-04T02:42:25.420Z,8.70
2022-10-04T02:44:57.645Z,8.70
2022-10-04T02:47:29.613Z,8.70
2022-10-04T02:49:59.393Z,8.70
2022-10-04T02:52:43.001Z,8.70
2022-10-04T02:55:16.407Z,8.70
2022-10-04T02:57:45.669Z,8.60
2022-10-04T03:00:12.184Z,8.60
2022-10-04T03:02:39.822Z,8.60
2022-10-04T03:05:10.983Z,8.60
2022-10-04T03:07:42.667Z,8.60
2022-10-04T03:10:13.451Z,8.60
2022-10-04T03:12:42.845Z,8.60
2022-10-04T03:15:10.822Z,8.60
2022-10-04T03:17:39.461Z,8.60
2022-10-04T03:20:09.145Z,8.60
2022-10-04T03:22:35.780Z,8.70
2022-10-04T03:25:04.758Z,8.60
2022-10-04T03:27:37.173Z,8.60
2022-10-04T03:30:04.205Z,8.60
2022-10-04T03:32:32.047Z,8.60
2022-10-04T03:35:00.424Z,8.60
2022-10-04T03:37:28.829Z,8.60
2022-10-04T03:39:57.083Z,8.50
2022-10-04T03:42:31.460Z,8.40
2022-10-04T03:45:01.834Z,8.50
2022-10-04T03:47:31.021Z,8.50
2022-10-04T03:49:58.919Z,8.50
2022-10-04T03:52:32.338Z,8.50
2022-10-04T03:55:01.474Z,8.50
2022-10-04T03:57:28.656Z,8.50
2022-10-04T03:59:55.733Z,8.50
2022-10-04T04:02:34.528Z,8.50
2022-10-04T04:05:30.423Z,8.50
2022-10-04T04:07:59.333Z,8.50
2022-10-04T04:10:34.939Z,8.50
2022-10-04T04:13:07.551Z,8.50
2022-10-04T04:15:34.285Z,8.50
2022-10-04T04:18:03.485Z,8.40
2022-10-04T04:20:36.829Z,8.50
2022-10-04T04:23:17.820Z,8.50
2022-10-04T04:25:46.941Z,8.50
2022-10-04T04:28:25.487Z,8.40
2022-10-04T04:30:57.061Z,8.50
2022-10-04T04:33:28.523Z,8.40
2022-10-04T04:36:05.424Z,8.40
2022-10-04T04:38:32.626Z,8.40
2022-10-04T04:41:08.427Z,8.40
2022-10-04T04:43:35.183Z,8.50
2022-10-04T04:46:26.050Z,8.50
2022-10-04T04:48:49.672Z,8.50
2022-10-04T04:51:20.859Z,8.40
2022-10-04T04:53:47.957Z,8.40
2022-10-04T04:56:19.143Z,8.40
2022-10-04T04:58:49.288Z,8.40
2022-10-04T05:01:21.304Z,8.40
2022-10-04T05:04:05.612Z,8.40
2022-10-04T05:06:33.053Z,8.40
2022-10-04T05:09:02.159Z,8.30
2022-10-04T05:11:39.826Z,8.30
2022-10-04T05:14:11.205Z,8.30
2022-10-04T05:16:49.090Z,8.30
2022-10-04T05:19:17.886Z,8.30
2022-10-04T05:21:48.124Z,8.30
2022-10-04T05:24:20.803Z,8.30
2022-10-04T05:26:55.096Z,8.40
2022-10-04T05:29:24.163Z,8.30
2022-10-04T05:31:57.690Z,8.40
2022-10-04T05:34:30.997Z,8.40
2022-10-04T05:37:06.589Z,8.40
2022-10-04T05:39:56.297Z,8.30
2022-10-04T05:42:26.880Z,8.40
2022-10-04T05:45:06.725Z,8.30
2022-10-04T05:47:35.759Z,8.40
2022-10-04T05:50:03.355Z,8.30
2022-10-04T05:52:36.926Z,8.30
2022-10-04T05:55:16.106Z,8.30
2022-10-04T05:57:42.599Z,8.40
2022-10-04T06:00:14.769Z,8.40
2022-10-04T06:02:51.611Z,8.40
2022-10-04T06:05:37.121Z,8.40
2022-10-04T06:08:22.530Z,8.40
2022-10-04T06:10:51.262Z,8.40
2022-10-04T06:13:33.075Z,8.40
2022-10-04T06:16:31.260Z,8.40
2022-10-04T06:19:00.656Z,8.40
2022-10-04T06:21:30.309Z,8.40
2022-10-04T06:24:26.829Z,8.50
2022-10-04T06:27:04.650Z,8.50
2022-10-04T06:29:33.692Z,8.50
2022-10-04T06:32:23.988Z,8.50
2022-10-04T06:35:06.871Z,8.50
2022-10-04T06:37:45.784Z,8.50
2022-10-04T06:40:30.829Z,8.50
2022-10-04T06:43:23.783Z,8.50
2022-10-04T06:46:15.410Z,8.50
2022-10-04T06:48:41.962Z,8.50
2022-10-04T06:51:20.408Z,8.50
2022-10-04T06:53:52.703Z,8.60
2022-10-04T06:56:25.352Z,8.50
2022-10-04T06:59:13.740Z,8.50
2022-10-04T07:01:50.617Z,8.50
2022-10-04T07:04:20.217Z,8.60
2022-10-04T07:07:25.893Z,8.60
2022-10-04T07:09:56.689Z,8.60
2022-10-04T07:12:25.896Z,8.60
2022-10-04T07:14:54.755Z,8.70
2022-10-04T07:17:27.673Z,8.60
2022-10-04T07:19:54.994Z,8.50
2022-10-04T07:22:26.014Z,8.40
2022-10-04T07:25:02.326Z,8.40
2022-10-04T07:27:34.435Z,8.40
2022-10-04T07:30:04.528Z,8.50
2022-10-04T07:32:40.323Z,8.60
2022-10-04T07:35:09.905Z,8.60
2022-10-04T07:37:46.096Z,8.60
2022-10-04T07:40:20.931Z,8.60
2022-10-04T07:42:53.074Z,8.60
2022-10-04T07:45:23.036Z,8.70
2022-10-04T07:47:50.865Z,8.80
2022-10-04T07:50:20.420Z,8.80
2022-10-04T07:52:52.682Z,8.70
2022-10-04T07:55:32.967Z,8.70
2022-10-04T07:58:18.158Z,8.80
2022-10-04T08:00:55.217Z,8.80
2022-10-04T08:03:36.790Z,8.90
2022-10-04T08:06:14.789Z,8.80
2022-10-04T08:08:50.430Z,8.90
2022-10-04T08:11:19.842Z,8.90
2022-10-04T08:14:05.090Z,8.90
2022-10-04T08:16:34.644Z,9.00
2022-10-04T08:19:10.758Z,9.10
2022-10-04T08:21:54.068Z,9.10
2022-10-04T08:24:28.664Z,9.20
2022-10-04T08:27:13.844Z,9.20
2022-10-04T08:29:52.469Z,9.30
2022-10-04T08:32:37.914Z,9.40
2022-10-04T08:35:23.259Z,9.40
2022-10-04T08:38:08.508Z,9.40
2022-10-04T08:40:47.212Z,9.40
2022-10-04T08:43:22.402Z,9.40
2022-10-04T08:46:09.587Z,9.40
2022-10-04T08:49:03.680Z,9.30
2022-10-04T08:51:51.036Z,9.40
2022-10-04T08:54:27.816Z,9.40
2022-10-04T08:57:04.652Z,9.50
2022-10-04T08:59:41.940Z,9.50
2022-10-04T09:02:28.700Z,9.60
2022-10-04T09:05:06.546Z,9.60
2022-10-04T09:07:36.379Z,9.50
2022-10-04T09:10:24.925Z,9.50
2022-10-04T09:12:51.831Z,9.60
2022-10-04T09:15:21.467Z,9.70
2022-10-04T09:17:48.025Z,9.80
2022-10-04T09:20:38.772Z,9.80
2022-10-04T09:23:06.687Z,9.90
2022-10-04T09:25:51.888Z,10.00
2022-10-04T09:28:38.172Z,10.10
2022-10-04T09:31:21.215Z,10.20
2022-10-04T09:33:49.935Z,10.20
2022-10-04T09:36:23.688Z,10.40
2022-10-04T09:39:18.331Z,10.50
2022-10-04T09:41:52.298Z,10.50
2022-10-04T09:44:24.957Z,10.70
2022-10-04T09:47:01.842Z,10.70
2022-10-04T09:49:36.784Z,10.80
2022-10-04T09:52:14.162Z,10.90
2022-10-04T09:54:58.952Z,11.00
2022-10-04T09:57:31.570Z,11.10
2022-10-04T09:59:58.107Z,11.10
2022-10-04T10:02:38.884Z,11.20
2022-10-04T10:05:24.144Z,11.30
2022-10-04T10:08:09.510Z,11.40
2022-10-04T10:11:13.750Z,11.50
2022-10-04T10:13:49.403Z,11.50
2022-10-04T10:16:34.489Z,11.60
2022-10-04T10:19:00.991Z,11.70
2022-10-04T10:21:27.512Z,11.70
2022-10-04T10:23:54.043Z,11.80
2022-10-04T10:26:29.782Z,11.90
2022-10-04T10:29:17.820Z,12.10
2022-10-04T10:31:47.673Z,12.20
2022-10-04T10:34:37.648Z,12.40
2022-10-04T10:37:22.394Z,12.40
2022-10-04T10:39:49.335Z,12.60
2022-10-04T10:42:39.495Z,12.70
2022-10-04T10:45:27.701Z,12.80
2022-10-04T10:48:01.639Z,12.80
2022-10-04T10:50:30.583Z,12.90
2022-10-04T10:53:12.028Z,12.90
2022-10-04T10:55:57.296Z,12.90
2022-10-04T10:58:43.122Z,13.00
2022-10-04T11:01:20.808Z,13.00
2022-10-04T11:03:53.372Z,13.10
2022-10-04T11:06:39.352Z,13.10
2022-10-04T11:09:24.567Z,13.20
2022-10-04T11:12:09.732Z,13.30
2022-10-04T11:14:52.747Z,13.40
2022-10-04T11:17:28.237Z,13.50
2022-10-04T11:19:57.740Z,13.60
2022-10-04T11:22:44.642Z,13.70
2022-10-04T11:25:25.119Z,13.70
2022-10-04T11:28:09.118Z,13.80
2022-10-04T11:30:51.979Z,13.90
2022-10-04T11:33:39.228Z,14.00
2022-10-04T11:36:25.851Z,14.00
2022-10-04T11:39:10.871Z,14.20
2022-10-04T11:41:52.832Z,14.30
2022-10-04T11:44:41.158Z,14.40
2022-10-04T11:47:08.581Z,14.40
2022-10-04T11:49:56.518Z,14.60
2022-10-04T11:52:30.886Z,14.70
2022-10-04T11:54:57.705Z,14.70
2022-10-04T11:57:27.439Z,14.80
2022-10-04T12:00:20.996Z,14.90
2022-10-04T12:02:55.837Z,15.00
2022-10-04T12:05:27.867Z,15.00
2022-10-04T12:08:14.645Z,15.10
2022-10-04T12:10:44.367Z,15.10
2022-10-04T12:13:14.233Z,15.20
2022-10-04T12:15:52.473Z,15.30
2022-10-04T12:18:35.895Z,15.40
2022-10-04T12:21:17.546Z,15.50
2022-10-04T12:23:53.911Z,15.50
2022-10-04T12:26:23.425Z,15.60
2022-10-04T12:28:52.980Z,15.60
2022-10-04T12:31:28.693Z,15.70
2022-10-04T12:34:16.659Z,15.80
2022-10-04T12:36:55.408Z,15.80
2022-10-04T12:39:42.156Z,15.90
2022-10-04T12:42:21.438Z,15.90
2022-10-04T12:45:06.392Z,16.00
2022-10-04T12:47:50.112Z,16.10
2022-10-04T12:50:27.945Z,16.10
2022-10-04T12:53:00.526Z,16.20
2022-10-04T12:55:45.639Z,16.20
2022-10-04T12:58:21.665Z,16.30
2022-10-04T13:00:49.002Z,16.30
2022-10-04T13:03:34.303Z,16.40
2022-10-04T13:06:19.547Z,16.40
2022-10-04T13:08:56.350Z,16.50
2022-10-04T13:11:49.973Z,16.50
2022-10-04T13:14:16.458Z,16.60
2022-10-04T13:19:52.980Z,16.70
2022-10-04T13:22:56.426Z,16.70
2022-10-04T13:25:39.372Z,16.80
2022-10-04T13:28:20.652Z,16.80
2022-10-04T13:31:08.618Z,16.80
2022-10-04T13:33:44.456Z,16.80
2022-10-04T13:36:40.633Z,16.90
2022-10-04T13:39:24.082Z,16.90
2022-10-04T13:42:12.281Z,16.90
2022-10-04T13:44:39.272Z,17.00
2022-10-04T13:47:22.451Z,17.10
2022-10-04T13:50:10.205Z,17.10
2022-10-04T13:53:08.382Z,17.10
2022-10-04T13:56:04.100Z,17.10
2022-10-04T13:58:49.548Z,17.10
2022-10-04T14:01:36.441Z,17.10
2022-10-04T14:04:09.292Z,17.20
2022-10-04T14:06:54.384Z,17.20
2022-10-04T14:09:39.860Z,17.20
2022-10-04T14:12:12.593Z,17.20
2022-10-04T14:14:57.728Z,17.20
2022-10-04T14:17:33.460Z,17.30
2022-10-04T14:20:18.893Z,17.40
2022-10-04T14:23:04.124Z,17.30
2022-10-04T14:25:49.196Z,17.40
2022-10-04T14:30:58.887Z,17.50
2022-10-04T14:33:31.265Z,17.50
2022-10-04T14:36:05.336Z,17.50
2022-10-04T14:38:52.484Z,17.50
2022-10-04T14:41:30.728Z,17.50
2022-10-04T14:44:18.656Z,17.50
2022-10-04T14:46:57.503Z,17.50
2022-10-04T14:49:24.495Z,17.50
2022-10-04T14:51:51.064Z,17.50
2022-10-04T14:54:26.824Z,17.50
2022-10-04T14:56:53.903Z,17.50
2022-10-04T14:59:39.183Z,17.50
2022-10-04T15:02:24.318Z,17.50
2022-10-04T15:05:10.137Z,17.50
2022-10-04T15:07:41.516Z,17.50
2022-10-04T15:10:23.747Z,17.50
2022-10-04T15:13:10.583Z,17.50
2022-10-04T15:15:50.868Z,17.50
2022-10-04T15:18:28.090Z,17.50
2022-10-04T15:21:13.644Z,17.50
2022-10-04T15:23:40.211Z,17.50
2022-10-04T15:26:19.034Z,17.50
2022-10-04T15:28:48.683Z,17.50
2022-10-04T15:31:28.942Z,17.60
2022-10-04T15:34:05.059Z,17.60
2022-10-04T15:36:31.908Z,17.60
2022-10-04T15:39:06.110Z,17.60
2022-10-04T15:41:35.761Z,17.50
2022-10-04T15:44:12.646Z,17.50
2022-10-04T15:46:57.586Z,17.50
2022-10-04T15:49:36.729Z,17.50
2022-10-04T15:52:06.087Z,17.50
2022-10-04T15:55:07.980Z,17.50
2022-10-04T15:57:40.458Z,17.50
2022-10-04T16:00:23.343Z,17.40
2022-10-04T16:03:02.218Z,17.40
2022-10-04T16:05:37.174Z,17.30
2022-10-04T16:08:09.861Z,17.40
2022-10-04T16:10:52.317Z,17.30
2022-10-04T16:13:33.380Z,17.30
2022-10-04T16:16:15.296Z,17.20
2022-10-04T16:19:00.396Z,17.20
2022-10-04T16:21:42.344Z,17.10
2022-10-04T16:24:18.261Z,17.10
2022-10-04T16:26:47.628Z,17.00
2022-10-04T16:29:35.447Z,17.00
2022-10-04T16:32:13.532Z,16.90
2022-10-04T16:34:45.125Z,16.80
2022-10-04T16:37:28.264Z,16.80
2022-10-04T16:40:00.649Z,16.70
2022-10-04T16:42:32.475Z,16.70
2022-10-04T16:45:07.856Z,16.70
2022-10-04T16:47:34.415Z,16.60
2022-10-04T16:50:04.781Z,16.50
2022-10-04T16:52:32.089Z,16.50
2022-10-04T16:55:01.774Z,16.40
2022-10-04T16:57:28.667Z,16.40
2022-10-04T16:59:56.781Z,16.30
2022-10-04T17:02:42.187Z,16.30
2022-10-04T17:05:32.280Z,16.20
2022-10-04T17:08:21.429Z,16.10
2022-10-04T17:11:06.670Z,16.10
2022-10-04T17:13:56.393Z,16.00
2022-10-04T17:16:26.014Z,16.00
2022-10-04T17:18:55.061Z,15.90
2022-10-04T17:21:25.997Z,15.80
2022-10-04T17:24:11.206Z,15.80
2022-10-04T17:26:38.248Z,15.70
2022-10-04T17:29:24.157Z,15.70
2022-10-04T17:32:16.249Z,15.60
2022-10-04T17:34:43.818Z,15.50
2022-10-04T17:37:20.341Z,15.40
2022-10-04T17:39:46.823Z,15.40
2022-10-04T17:42:23.282Z,15.30
2022-10-04T17:45:01.608Z,15.30
2022-10-04T17:47:48.113Z,15.30
2022-10-04T17:50:37.400Z,15.20
2022-10-04T17:53:27.986Z,15.10
2022-10-04T17:55:58.582Z,15.10
2022-10-04T17:58:38.166Z,15.00
2022-10-04T18:01:07.894Z,15.00
2022-10-04T18:03:39.873Z,14.90
2022-10-04T18:06:26.126Z,14.90
2022-10-04T18:09:17.189Z,14.80
2022-10-04T18:11:49.076Z,14.70
2022-10-04T18:14:30.835Z,14.70
2022-10-04T18:17:00.758Z,14.60
2022-10-04T18:19:47.332Z,14.60
2022-10-04T18:22:15.164Z,14.50
2022-10-04T18:24:43.134Z,14.50
2022-10-04T18:27:23.169Z,14.50
2022-10-04T18:30:02.670Z,14.40
2022-10-04T18:32:29.172Z,14.40
2022-10-04T18:34:57.076Z,14.30
2022-10-04T18:37:33.091Z,14.30
2022-10-04T18:40:06.165Z,14.20
2022-10-04T18:42:36.994Z,14.20
2022-10-04T18:45:20.099Z,14.10
2022-10-04T18:47:47.151Z,14.10
2022-10-04T18:50:15.774Z,14.00
2022-10-04T18:53:01.189Z,13.90
2022-10-04T18:55:38.870Z,13.90
2022-10-04T18:58:33.465Z,13.80
2022-10-04T19:01:41.768Z,13.80
2022-10-04T19:04:14.260Z,13.70
2022-10-04T19:06:43.195Z,13.70
2022-10-04T19:09:15.805Z,13.70
2022-10-04T19:11:42.321Z,13.60
2022-10-04T19:14:23.834Z,13.60
2022-10-04T19:16:56.488Z,13.50
2022-10-04T19:19:28.951Z,13.50
2022-10-04T19:22:21.588Z,13.40
2022-10-04T19:24:48.719Z,13.30
2022-10-04T19:27:21.690Z,13.40
2022-10-04T19:29:57.258Z,13.30
2022-10-04T19:32:42.424Z,13.20
2022-10-04T19:35:16.430Z,13.20
2022-10-04T19:37:46.484Z,13.10
2022-10-04T19:40:27.806Z,13.10
2022-10-04T19:43:05.210Z,13.10
2022-10-04T19:45:41.124Z,13.00
2022-10-04T19:48:14.328Z,13.00
2022-10-04T19:50:46.625Z,13.00
2022-10-04T19:53:23.520Z,12.90
2022-10-04T19:55:50.065Z,12.80
2022-10-04T19:58:24.030Z,12.80
2022-10-04T20:00:50.680Z,12.80
2022-10-04T20:03:17.457Z,12.80
2022-10-04T20:05:43.979Z,12.70
2022-10-04T20:08:11.660Z,12.70
2022-10-04T20:10:38.697Z,12.60
2022-10-04T20:13:08.626Z,12.60
2022-10-04T20:15:37.722Z,12.60
2022-10-04T20:18:25.382Z,12.50
2022-10-04T20:20:54.804Z,12.50
2022-10-04T20:23:40.084Z,12.40
2022-10-04T20:26:10.643Z,12.40
2022-10-04T20:28:44.597Z,12.40
2022-10-04T20:31:23.224Z,12.30
2022-10-04T20:33:49.980Z,12.20
2022-10-04T20:36:22.054Z,12.20
2022-10-04T20:38:48.624Z,12.20
2022-10-04T20:41:50.204Z,12.20
2022-10-04T20:44:35.220Z,12.10
2022-10-04T20:47:02.072Z,12.00
2022-10-04T20:49:28.614Z,12.00
2022-10-04T20:51:57.286Z,12.00
2022-10-04T20:54:24.955Z,12.00
2022-10-04T20:56:51.610Z,12.00
2022-10-04T20:59:18.538Z,11.90
2022-10-04T21:02:03.771Z,11.90
2022-10-04T21:04:41.228Z,11.90
2022-10-04T21:07:12.505Z,11.80
2022-10-04T21:09:40.339Z,11.80
2022-10-04T21:12:28.039Z,11.70
2022-10-04T21:15:13.149Z,11.70
2022-10-04T21:17:39.653Z,11.60
2022-10-04T21:20:13.399Z,11.60
2022-10-04T21:22:40.152Z,11.60
2022-10-04T21:25:25.259Z,11.60
2022-10-04T21:27:51.919Z,11.60
2022-10-04T21:30:22.827Z,11.50
2022-10-04T21:32:49.403Z,11.50
2022-10-04T21:35:15.974Z,11.50
2022-10-04T21:37:45.005Z,11.40
2022-10-04T21:40:12.943Z,11.40
2022-10-04T21:42:39.464Z,11.40
2022-10-04T21:45:06.203Z,11.40
2022-10-04T21:47:35.546Z,11.30
2022-10-04T21:50:02.056Z,11.30
2022-10-04T21:52:31.026Z,11.30
2022-10-04T21:54:57.558Z,11.20
2022-10-04T21:57:24.266Z,11.20
2022-10-04T21:59:50.837Z,11.20
2022-10-04T22:02:19.527Z,11.30
2022-10-04T22:04:46.065Z,11.20
2022-10-04T22:07:12.589Z,11.20
2022-10-04T22:09:39.077Z,11.10
2022-10-04T22:12:05.617Z,11.10
2022-10-04T22:14:32.142Z,11.00
2022-10-04T22:16:58.727Z,10.90
2022-10-04T22:19:25.259Z,10.90
2022-10-04T22:21:51.797Z,10.90
2022-10-04T22:24:19.434Z,10.80
2022-10-04T22:26:46.788Z,10.80
2022-10-04T22:29:15.645Z,10.80
2022-10-04T22:31:44.521Z,10.80
2022-10-04T22:34:20.987Z,10.70
2022-10-04T22:36:48.830Z,10.70
2022-10-04T22:39:17.335Z,10.70
2022-10-04T22:42:02.306Z,10.70
2022-10-04T22:44:34.666Z,10.60
2022-10-04T22:47:01.561Z,10.60
2022-10-04T22:49:32.168Z,10.60
2022-10-04T22:52:02.868Z,10.60
2022-10-04T22:54:33.583Z,10.60
2022-10-04T22:57:02.262Z,10.50
2022-10-04T22:59:40.211Z,10.50
2022-10-04T23:02:10.788Z,10.50
2022-10-04T23:04:39.536Z,10.50
2022-10-04T23:07:06.266Z,10.40
2022-10-04T23:09:32.796Z,10.40
2022-10-04T23:11:59.307Z,10.30
2022-10-04T23:14:25.893Z,10.30
2022-10-04T23:16:52.442Z,10.30
2022-10-04T23:19:20.161Z,10.30
2022-10-04T23:21:47.900Z,10.30
2022-10-04T23:24:17.879Z,10.30
2022-10-04T23:26:45.817Z,10.20
2022-10-04T23:29:21.947Z,10.20
2022-10-04T23:31:51.501Z,10.20
2022-10-04T23:34:19.753Z,10.20
2022-10-04T23:36:48.091Z,10.10
2022-10-04T23:39:22.297Z,10.10
2022-10-04T23:41:48.797Z,10.00
2022-10-04T23:44:17.869Z,9.90
2022-10-04T23:46:44.866Z,9.90
2022-10-04T23:49:15.911Z,9.90
2022-10-04T23:51:43.190Z,9.80
2022-10-04T23:54:14.415Z,9.90
2022-10-04T23:56:41.322Z,9.80
2022-10-04T23:59:12.646Z,9.90
